Terminal Aerodrome Forecast
Issued by NWS Melbourne, FL

Home | Current Version | Previous Version | Text Only | Print | Product List | Glossary On
Versions: 1 2 3 4 5 6 7 8 9 10 11 12 13 14 15 16
000
FTUS42 KMLB 221100
TAFMLB
TAF
KMLB 221130Z 2212/2312 VRB03KT P6SM VCSH FEW025 SCT250
      TEMPO 2212/2214 BKN025
     FM221400 19006KT P6SM VCSH SCT025 SCT050
     FM221700 11009KT P6SM VCTS SCT030CB BKN050 BKN250
      TEMPO 2217/2219 3SM TSRA BKN030CB
     FM230000 17005KT P6SM FEW020 SCT100 OVC250=

USA.gov is the U.S. government's official web portal to all federal, state and local government web resources and services.